Time,TemperatureF,DewpointF,PressureIn,WindDirection,WindDirectionDegrees,WindSpeedMPH,WindSpeedGustMPH,Humidity,HourlyPrecipIn,Conditions,Clouds,dailyrainin,SoftwareType,DateUTC
2013-03-28 00:00:00,34.0,24.9,28.63,WNW,287,3.5,3.5,69,0.00,CLR,CLR,0.00,WeatherDisplay:10.37,2013-03-28 04:00:00,
2013-03-28 00:02:00,34.0,24.9,28.62,WSW,251,2.3,2.3,69,0.00,CLR,CLR,0.00,WeatherDisplay:10.37,2013-03-28 04:02:00,
2013-03-28 00:08:00,34.0,24.9,28.63,WSW,251,3.5,3.5,69,0.00,CLR,CLR,0.00,WeatherDisplay:10.37,2013-03-28 04:08:00,
2013-03-28 00:13:00,33.9,24.8,28.62,WSW,251,3.5,3.5,69,0.00,CLR,CLR,0.00,WeatherDisplay:10.37,2013-03-28 04:13:00,
2013-03-28 00:18:00,33.9,25.1,28.63,WSW,257,3.5,3.5,70,0.00,CLR,CLR,0.00,WeatherDisplay:10.37,2013-03-28 04:18:00,
2013-03-28 00:23:00,33.9,25.1,28.63,WNW,286,3.5,3.5,70,0.00,CLR,CLR,0.00,WeatherDisplay:10.37,2013-03-28 04:23:00,
2013-03-28 00:28:00,33.9,25.5,28.62,SSW,211,3.5,3.5,71,0.00,CLR,CLR,0.00,WeatherDisplay:10.37,2013-03-28 04:28:00,
2013-03-28 00:33:00,33.9,25.5,28.63,WSW,253,2.0,2.0,71,0.00,CLR,CLR,0.00,WeatherDisplay:10.37,2013-03-28 04:33:00,
2013-03-28 00:39:00,33.8,25.4,28.63,WNW,284,4.6,4.6,71,0.00,CLR,CLR,0.00,WeatherDisplay:10.37,2013-03-28 04:39:00,
2013-03-28 00:44:00,33.8,25.4,28.62,WNW,282,3.5,3.5,71,0.00,CLR,CLR,0.00,WeatherDisplay:10.37,2013-03-28 04:44:00,
2013-03-28 00:49:00,33.8,25.4,28.62,West,267,3.5,3.5,71,0.00,CLR,CLR,0.00,WeatherDisplay:10.37,2013-03-28 04:49:00,
2013-03-28 00:54:00,33.9,25.8,28.63,West,266,3.5,3.5,72,0.00,CLR,CLR,0.00,WeatherDisplay:10.37,2013-03-28 04:54:00,
2013-03-28 00:59:00,34.0,25.9,28.62,West,262,4.6,4.6,72,0.00,CLR,CLR,0.00,WeatherDisplay:10.37,2013-03-28 04:59:00,
2013-03-28 01:04:00,34.1,26.0,28.62,SW,218,3.5,3.5,72,0.00,CLR,CLR,0.00,WeatherDisplay:10.37,2013-03-28 05:04:00,
2013-03-28 01:09:00,34.1,26.0,28.62,SW,218,3.5,3.5,72,0.00,CLR,CLR,0.00,WeatherDisplay:10.37,2013-03-28 05:09:00,
2013-03-28 01:14:00,34.1,26.0,28.62,SW,218,3.0,3.0,72,0.00,CLR,CLR,0.00,WeatherDisplay:10.37,2013-03-28 05:14:00,
2013-03-28 01:19:00,34.0,25.9,28.62,SW,218,2.3,2.3,72,0.00,CLR,CLR,0.00,WeatherDisplay:10.37,2013-03-28 05:19:00,
2013-03-28 01:25:00,33.8,25.7,28.62,SW,218,2.3,2.3,72,0.00,CLR,CLR,0.00,WeatherDisplay:10.37,2013-03-28 05:25:00,
2013-03-28 01:30:00,33.7,25.6,28.62,SW,218,1.2,1.2,72,0.00,CLR,CLR,0.00,WeatherDisplay:10.37,2013-03-28 05:30:00,
2013-03-28 01:35:00,33.5,25.8,28.62,SW,218,2.3,2.3,73,0.00,CLR,CLR,0.00,WeatherDisplay:10.37,2013-03-28 05:35:00,
2013-03-28 01:40:00,33.5,25.8,28.61,SW,218,1.2,1.2,73,0.00,CLR,CLR,0.00,WeatherDisplay:10.37,2013-03-28 05:40:00,
2013-03-28 01:45:00,33.5,25.8,28.61,SW,218,1.2,1.2,73,0.00,CLR,CLR,0.00,WeatherDisplay:10.37,2013-03-28 05:45:00,
2013-03-28 01:50:00,33.3,25.6,28.62,SW,218,0.0,0.0,73,0.00,CLR,CLR,0.00,WeatherDisplay:10.37,2013-03-28 05:50:00,
2013-03-28 01:55:00,33.2,25.5,28.62,SW,218,0.0,0.0,73,0.00,CLR,CLR,0.00,WeatherDisplay:10.37,2013-03-28 05:55:00,
2013-03-28 02:01:00,33.1,25.4,28.62,SW,218,2.3,2.3,73,0.00,CLR,CLR,0.00,WeatherDisplay:10.37,2013-03-28 06:01:00,
2013-03-28 02:06:00,32.7,25.3,28.62,SW,218,0.0,0.0,74,0.00,CLR,CLR,0.00,WeatherDisplay:10.37,2013-03-28 06:06:00,
2013-03-28 02:11:00,32.5,25.1,28.61,SW,218,1.2,1.2,74,0.00,CLR,CLR,0.00,WeatherDisplay:10.37,2013-03-28 06:11:00,
2013-03-28 02:17:00,32.4,25.0,28.62,SW,218,2.3,0.0,74,0.00,CLR,CLR,0.00,WeatherDisplay:10.37,2013-03-28 06:17:00,
2013-03-28 02:22:00,32.3,25.3,28.62,SW,218,2.3,2.3,75,0.00,CLR,CLR,0.00,WeatherDisplay:10.37,2013-03-28 06:22:00,
2013-03-28 02:27:00,32.3,24.9,28.62,SSW,203,2.3,2.3,74,0.00,CLR,CLR,0.00,WeatherDisplay:10.37,2013-03-28 06:27:00,
2013-03-28 02:32:00,32.3,24.9,28.62,SSW,203,0.0,0.0,74,0.00,CLR,CLR,0.00,WeatherDisplay:10.37,2013-03-28 06:32:00,
2013-03-28 02:37:00,32.3,24.9,28.61,SSW,193,3.5,3.5,74,0.00,CLR,CLR,0.00,WeatherDisplay:10.37,2013-03-28 06:37:00,
2013-03-28 02:42:00,32.3,24.9,28.61,SSW,198,1.2,1.2,74,0.00,CLR,CLR,0.00,WeatherDisplay:10.37,2013-03-28 06:42:00,
2013-03-28 02:48:00,32.4,25.0,28.61,West,264,2.3,2.3,74,0.00,CLR,CLR,0.00,WeatherDisplay:10.37,2013-03-28 06:48:00,
2013-03-28 02:53:00,32.3,24.9,28.61,West,264,0.0,0.0,74,0.00,CLR,CLR,0.00,WeatherDisplay:10.37,2013-03-28 06:53:00,
2013-03-28 02:58:00,32.3,24.9,28.61,West,264,0.0,0.0,74,0.00,CLR,CLR,0.00,WeatherDisplay:10.37,2013-03-28 06:58:00,
2013-03-28 03:03:00,32.0,24.6,28.61,West,265,3.5,3.5,74,0.00,CLR,CLR,0.00,WeatherDisplay:10.37,2013-03-28 07:03:00,
2013-03-28 03:08:00,31.7,24.4,28.60,West,264,2.0,2.0,74,0.00,CLR,CLR,0.00,WeatherDisplay:10.37,2013-03-28 07:08:00,
2013-03-28 03:13:00,31.5,24.5,28.61,West,264,2.3,2.3,75,0.00,CLR,CLR,0.00,WeatherDisplay:10.37,2013-03-28 07:13:00,
2013-03-28 03:18:00,31.5,24.5,28.60,West,264,3.5,3.5,75,0.00,CLR,CLR,0.00,WeatherDisplay:10.37,2013-03-28 07:18:00,
2013-03-28 03:24:00,31.5,24.8,28.61,SW,220,2.3,2.3,76,0.00,CLR,CLR,0.00,WeatherDisplay:10.37,2013-03-28 07:24:00,
2013-03-28 03:29:00,31.6,24.9,28.60,SW,214,4.0,4.0,76,0.00,CLR,CLR,0.00,WeatherDisplay:10.37,2013-03-28 07:29:00,
2013-03-28 03:34:00,31.6,24.6,28.60,SW,228,3.5,3.5,75,0.00,CLR,CLR,0.00,WeatherDisplay:10.37,2013-03-28 07:34:00,
2013-03-28 03:39:00,31.8,24.8,28.60,WSW,254,3.5,3.5,75,0.00,CLR,CLR,0.00,WeatherDisplay:10.37,2013-03-28 07:39:00,
2013-03-28 03:44:00,31.7,25.0,28.60,WSW,255,1.2,0.0,76,0.00,CLR,CLR,0.00,WeatherDisplay:10.37,2013-03-28 07:44:00,
2013-03-28 03:49:00,31.6,24.9,28.60,WSW,255,1.2,1.2,76,0.00,CLR,CLR,0.00,WeatherDisplay:10.37,2013-03-28 07:49:00,
2013-03-28 03:54:00,31.6,24.9,28.60,WSW,254,2.3,2.3,76,0.00,CLR,CLR,0.00,WeatherDisplay:10.37,2013-03-28 07:54:00,
2013-03-28 03:59:00,31.6,24.9,28.60,WSW,258,1.2,0.0,76,0.00,CLR,CLR,0.00,WeatherDisplay:10.37,2013-03-28 07:59:00,
2013-03-28 04:04:00,31.5,24.8,28.60,WSW,258,0.0,0.0,76,0.00,CLR,CLR,0.00,WeatherDisplay:10.37,2013-03-28 08:04:00,
2013-03-28 04:09:00,31.6,25.2,28.60,SSW,197,5.0,5.0,77,0.00,CLR,CLR,0.00,WeatherDisplay:10.37,2013-03-28 08:09:00,
2013-03-28 04:15:00,31.8,25.4,28.59,SSW,209,0.0,0.0,77,0.00,CLR,CLR,0.00,WeatherDisplay:10.37,2013-03-28 08:15:00,
2013-03-28 04:20:00,31.9,25.5,28.59,South,169,2.3,2.6,77,0.00,CLR,CLR,0.00,WeatherDisplay:10.37,2013-03-28 08:20:00,
2013-03-28 04:25:00,32.2,25.5,28.60,South,172,0.0,0.0,76,0.00,CLR,CLR,0.00,WeatherDisplay:10.37,2013-03-28 08:25:00,
2013-03-28 04:30:00,32.4,25.7,28.60,South,172,0.0,0.0,76,0.00,CLR,CLR,0.00,WeatherDisplay:10.37,2013-03-28 08:30:00,
2013-03-28 04:35:00,32.5,25.8,28.60,South,172,0.0,0.0,76,0.00,CLR,CLR,0.00,WeatherDisplay:10.37,2013-03-28 08:35:00,
2013-03-28 04:40:00,32.4,25.4,28.60,South,172,0.0,0.0,75,0.00,CLR,CLR,0.00,WeatherDisplay:10.37,2013-03-28 08:40:00,
2013-03-28 04:45:00,32.5,25.5,28.60,South,172,0.0,0.0,75,0.00,CLR,CLR,0.00,WeatherDisplay:10.37,2013-03-28 08:45:00,
2013-03-28 04:50:00,32.5,25.5,28.60,South,172,2.3,2.3,75,0.00,CLR,CLR,0.00,WeatherDisplay:10.37,2013-03-28 08:50:00,
2013-03-28 04:55:00,32.6,25.9,28.60,South,172,2.3,0.0,76,0.00,CLR,CLR,0.00,WeatherDisplay:10.37,2013-03-28 08:55:00,
2013-03-28 05:00:00,32.6,25.9,28.60,South,172,0.0,0.0,76,0.00,CLR,CLR,0.00,WeatherDisplay:10.37,2013-03-28 09:00:00,
2013-03-28 05:06:00,32.6,25.9,28.60,SW,217,3.5,3.5,76,0.00,CLR,CLR,0.00,WeatherDisplay:10.37,2013-03-28 09:06:00,
2013-03-28 05:11:00,32.5,25.8,28.60,SW,223,3.5,3.5,76,0.00,CLR,CLR,0.00,WeatherDisplay:10.37,2013-03-28 09:11:00,
2013-03-28 05:16:00,32.5,25.8,28.60,SW,223,3.5,3.5,76,0.00,CLR,CLR,0.00,WeatherDisplay:10.37,2013-03-28 09:16:00,
2013-03-28 05:22:00,32.5,25.8,28.60,SW,223,2.3,2.3,76,0.00,CLR,CLR,0.00,WeatherDisplay:10.37,2013-03-28 09:22:00,
2013-03-28 05:27:00,32.8,26.4,28.60,West,259,4.0,4.0,77,0.00,CLR,CLR,0.00,WeatherDisplay:10.37,2013-03-28 09:27:00,
2013-03-28 05:32:00,33.2,26.8,28.60,WSW,254,8.1,8.1,77,0.00,CLR,CLR,0.00,WeatherDisplay:10.37,2013-03-28 09:32:00,
2013-03-28 05:37:00,33.4,26.6,28.60,West,276,3.5,3.5,76,0.00,CLR,CLR,0.00,WeatherDisplay:10.37,2013-03-28 09:37:00,
2013-03-28 05:43:00,33.6,27.8,28.83,SW,215,4.6,4.6,79,0.00,CLR,CLR,0.00,WeatherDisplay:10.37,2013-03-28 09:43:00,
2013-03-28 05:48:00,33.6,26.8,28.63,SW,215,2.3,2.3,76,0.00,CLR,CLR,0.00,WeatherDisplay:10.37,2013-03-28 09:48:00,
2013-03-28 05:53:00,33.6,26.8,28.63,WNW,303,6.9,6.9,76,0.00,CLR,CLR,0.00,WeatherDisplay:10.37,2013-03-28 09:53:00,
2013-03-28 05:58:00,33.6,26.8,28.64,WNW,301,4.6,4.6,76,0.00,CLR,CLR,0.00,WeatherDisplay:10.37,2013-03-28 09:58:00,
2013-03-28 06:04:00,33.7,26.9,28.64,WNW,282,4.6,4.6,76,0.00,CLR,CLR,0.00,WeatherDisplay:10.37,2013-03-28 10:04:00,
2013-03-28 06:09:00,33.7,26.9,28.63,WNW,282,2.3,2.3,76,0.00,CLR,CLR,0.00,WeatherDisplay:10.37,2013-03-28 10:09:00,
2013-03-28 06:14:00,33.6,26.8,28.64,WNW,282,3.5,3.5,76,0.00,CLR,CLR,0.00,WeatherDisplay:10.37,2013-03-28 10:14:00,
2013-03-28 06:19:00,33.6,26.8,28.63,WNW,282,3.0,3.0,76,0.00,CLR,CLR,0.00,WeatherDisplay:10.37,2013-03-28 10:19:00,
2013-03-28 06:24:00,33.6,26.8,28.64,WNW,284,3.5,3.5,76,0.00,CLR,CLR,0.00,WeatherDisplay:10.37,2013-03-28 10:24:00,
2013-03-28 06:29:00,33.6,26.8,28.64,WNW,289,3.5,3.5,76,0.00,CLR,CLR,0.00,WeatherDisplay:10.37,2013-03-28 10:29:00,
2013-03-28 06:34:00,33.6,26.8,28.64,WNW,291,4.6,4.6,76,0.00,CLR,CLR,0.00,WeatherDisplay:10.37,2013-03-28 10:34:00,
2013-03-28 06:39:00,33.7,26.9,28.64,WNW,291,3.5,3.5,76,0.00,CLR,CLR,0.00,WeatherDisplay:10.37,2013-03-28 10:39:00,
2013-03-28 06:44:00,33.6,26.8,28.65,WNW,291,3.0,3.0,76,0.00,CLR,CLR,0.00,WeatherDisplay:10.37,2013-03-28 10:44:00,
2013-03-28 06:50:00,33.7,26.9,28.64,NW,322,6.0,6.0,76,0.00,CLR,CLR,0.00,WeatherDisplay:10.37,2013-03-28 10:50:00,
2013-03-28 06:55:00,33.8,27.0,28.64,NW,315,10.4,10.4,76,0.00,CLR,CLR,0.00,WeatherDisplay:10.37,2013-03-28 10:55:00,
2013-03-28 07:00:00,33.8,26.7,28.64,NW,305,9.2,9.2,75,0.00,CLR,CLR,0.00,WeatherDisplay:10.37,2013-03-28 11:00:00,
2013-03-28 07:05:00,33.7,26.6,28.64,NW,305,9.2,9.2,75,0.00,CLR,CLR,0.00,WeatherDisplay:10.37,2013-03-28 11:05:00,
2013-03-28 07:10:00,33.7,26.9,28.65,NW,307,5.8,5.8,76,0.00,CLR,CLR,0.00,WeatherDisplay:10.37,2013-03-28 11:10:00,
2013-03-28 07:15:00,33.8,27.0,28.64,North,356,10.4,10.4,76,0.00,CLR,CLR,0.00,WeatherDisplay:10.37,2013-03-28 11:15:00,
2013-03-28 07:21:00,33.9,27.1,28.64,NW,310,8.1,8.1,76,0.00,CLR,CLR,0.00,WeatherDisplay:10.37,2013-03-28 11:21:00,
2013-03-28 07:26:00,34.0,27.2,28.64,NNW,327,6.0,6.0,76,0.00,CLR,CLR,0.00,WeatherDisplay:10.37,2013-03-28 11:26:00,
2013-03-28 07:32:00,34.2,27.7,28.84,NW,316,12.7,12.7,77,0.00,CLR,CLR,0.00,WeatherDisplay:10.37,2013-03-28 11:32:00,
2013-03-28 07:37:00,34.5,27.7,28.91,WNW,289,7.0,7.0,76,0.00,CLR,CLR,0.00,WeatherDisplay:10.37,2013-03-28 11:37:00,
2013-03-28 07:42:00,34.6,27.8,28.93,NW,323,3.5,3.5,76,0.00,CLR,CLR,0.00,WeatherDisplay:10.37,2013-03-28 11:42:00,
2013-03-28 07:47:00,34.7,27.9,28.91,WNW,303,11.0,11.0,76,0.00,CLR,CLR,0.00,WeatherDisplay:10.37,2013-03-28 11:47:00,
2013-03-28 07:52:00,35.2,28.1,28.91,NW,310,10.4,10.4,75,0.00,CLR,CLR,0.00,WeatherDisplay:10.37,2013-03-28 11:52:00,
2013-03-28 07:58:00,35.5,28.0,28.94,NNW,337,11.5,11.5,74,0.00,CLR,CLR,0.00,WeatherDisplay:10.37,2013-03-28 11:58:00,
2013-03-28 08:03:00,35.6,27.8,28.91,NNW,333,16.1,16.1,73,0.00,CLR,CLR,0.00,WeatherDisplay:10.37,2013-03-28 12:03:00,
2013-03-28 08:08:00,35.5,27.4,28.86,North,352,13.8,13.8,72,0.00,CLR,CLR,0.00,WeatherDisplay:10.37,2013-03-28 12:08:00,
2013-03-28 08:13:00,35.5,27.4,28.87,WNW,301,11.5,11.5,72,0.00,CLR,CLR,0.00,WeatherDisplay:10.37,2013-03-28 12:13:00,
2013-03-28 08:18:00,35.5,27.0,28.94,NNW,334,11.5,11.5,71,0.00,CLR,CLR,0.00,WeatherDisplay:10.37,2013-03-28 12:18:00,
2013-03-28 08:24:00,35.4,26.6,28.94,NW,306,19.6,19.6,70,0.00,CLR,CLR,0.00,WeatherDisplay:10.37,2013-03-28 12:24:00,
2013-03-28 08:29:00,35.3,26.5,28.92,NW,306,11.5,11.5,70,0.00,CLR,CLR,0.00,WeatherDisplay:10.37,2013-03-28 12:29:00,
2013-03-28 08:34:00,35.3,26.5,28.94,NNW,330,13.8,13.8,70,0.00,CLR,CLR,0.00,WeatherDisplay:10.37,2013-03-28 12:34:00,
2013-03-28 08:39:00,35.3,26.1,29.00,NW,314,6.9,6.9,69,0.00,CLR,CLR,0.00,WeatherDisplay:10.37,2013-03-28 12:39:00,
2013-03-28 08:44:00,35.5,26.3,28.95,NW,313,4.6,4.6,69,0.00,CLR,CLR,0.00,WeatherDisplay:10.37,2013-03-28 12:44:00,
2013-03-28 08:49:00,35.7,26.5,28.96,NW,322,6.9,6.9,69,0.00,CLR,CLR,0.00,WeatherDisplay:10.37,2013-03-28 12:49:00,
2013-03-28 08:54:00,36.1,26.9,28.97,WNW,294,5.0,5.0,69,0.00,CLR,CLR,0.00,WeatherDisplay:10.37,2013-03-28 12:54:00,
2013-03-28 08:59:00,36.5,26.2,28.98,NW,310,12.7,12.7,66,0.00,CLR,CLR,0.00,WeatherDisplay:10.37,2013-03-28 12:59:00,
2013-03-28 09:04:00,36.8,25.8,28.98,NNW,336,11.5,11.5,64,0.00,CLR,CLR,0.00,WeatherDisplay:10.37,2013-03-28 13:04:00,
2013-03-28 09:09:00,37.2,25.8,28.96,West,275,9.0,9.0,63,0.00,CLR,CLR,0.00,WeatherDisplay:10.37,2013-03-28 13:09:00,
2013-03-28 09:14:00,37.6,25.4,29.03,NW,323,13.8,13.8,61,0.00,CLR,CLR,0.00,WeatherDisplay:10.37,2013-03-28 13:14:00,
2013-03-28 09:19:00,37.8,25.9,28.92,NW,315,9.2,9.2,62,0.00,CLR,CLR,0.00,WeatherDisplay:10.37,2013-03-28 13:19:00,
2013-03-28 09:25:00,38.3,26.0,28.98,NNW,339,11.5,11.5,61,0.00,CLR,CLR,0.00,WeatherDisplay:10.37,2013-03-28 13:25:00,
2013-03-28 09:30:00,38.2,25.5,28.98,West,272,11.5,11.5,60,0.00,CLR,CLR,0.00,WeatherDisplay:10.37,2013-03-28 13:30:00,
2013-03-28 09:35:00,38.2,25.1,28.93,NNW,332,15.0,15.0,59,0.00,CLR,CLR,0.00,WeatherDisplay:10.37,2013-03-28 13:35:00,
2013-03-28 09:40:00,38.5,25.8,28.96,WNW,298,9.2,9.2,60,0.00,CLR,CLR,0.00,WeatherDisplay:10.37,2013-03-28 13:40:00,
2013-03-28 09:45:00,39.2,25.6,28.97,WNW,297,9.2,9.2,58,0.00,CLR,CLR,0.00,WeatherDisplay:10.37,2013-03-28 13:45:00,
2013-03-28 09:50:00,39.9,26.3,28.96,West,279,6.9,6.9,58,0.00,CLR,CLR,0.00,WeatherDisplay:10.37,2013-03-28 13:50:00,
2013-03-28 09:56:00,40.7,25.8,28.95,NW,316,11.5,11.5,55,0.00,CLR,CLR,0.00,WeatherDisplay:10.37,2013-03-28 13:56:00,
2013-03-28 10:01:00,40.9,26.4,28.95,WNW,283,11.5,11.5,56,0.00,CLR,CLR,0.00,WeatherDisplay:10.37,2013-03-28 14:01:00,
2013-03-28 10:07:00,41.5,26.5,29.05,WNW,293,16.1,16.1,55,0.00,CLR,CLR,0.00,WeatherDisplay:10.37,2013-03-28 14:07:00,
2013-03-28 10:12:00,41.7,26.7,29.01,NNW,337,12.0,12.0,55,0.00,CLR,CLR,0.00,WeatherDisplay:10.37,2013-03-28 14:12:00,
2013-03-28 10:17:00,41.7,26.3,29.08,NNW,335,20.7,20.7,54,0.00,CLR,CLR,0.00,WeatherDisplay:10.37,2013-03-28 14:17:00,
2013-03-28 10:22:00,41.7,26.3,28.99,North,354,17.3,17.3,54,0.00,CLR,CLR,0.00,WeatherDisplay:10.37,2013-03-28 14:22:00,
2013-03-28 10:27:00,41.3,25.9,29.01,NNW,345,21.9,21.9,54,0.00,CLR,CLR,0.00,WeatherDisplay:10.37,2013-03-28 14:27:00,
2013-03-28 10:32:00,41.4,25.5,29.08,NW,313,15.0,15.0,53,0.00,CLR,CLR,0.00,WeatherDisplay:10.37,2013-03-28 14:32:00,
2013-03-28 10:37:00,41.7,25.8,29.04,WNW,297,15.0,15.0,53,0.00,CLR,CLR,0.00,WeatherDisplay:10.37,2013-03-28 14:37:00,
2013-03-28 10:43:00,41.4,25.5,29.12,NW,317,19.6,19.6,53,0.00,CLR,CLR,0.00,WeatherDisplay:10.37,2013-03-28 14:43:00,
2013-03-28 10:48:00,41.1,25.3,29.14,NNW,340,11.5,11.5,53,0.00,CLR,CLR,0.00,WeatherDisplay:10.37,2013-03-28 14:48:00,
2013-03-28 10:53:00,41.8,25.9,29.03,WNW,302,21.9,21.9,53,0.00,CLR,CLR,0.00,WeatherDisplay:10.37,2013-03-28 14:53:00,
2013-03-28 10:58:00,42.0,25.6,29.03,NW,305,18.0,18.0,52,0.00,CLR,CLR,0.00,WeatherDisplay:10.37,2013-03-28 14:58:00,
2013-03-28 11:03:00,42.3,25.9,29.02,North,356,16.1,16.1,52,0.00,CLR,CLR,0.00,WeatherDisplay:10.37,2013-03-28 15:03:00,
2013-03-28 11:08:00,42.7,26.7,28.99,NNW,328,14.0,14.0,53,0.00,CLR,CLR,0.00,WeatherDisplay:10.37,2013-03-28 15:08:00,
2013-03-28 11:13:00,43.0,26.6,28.98,North,355,17.3,17.3,52,0.00,CLR,CLR,0.00,WeatherDisplay:10.37,2013-03-28 15:13:00,
2013-03-28 11:19:00,43.0,26.6,29.02,NNW,331,17.3,17.3,52,0.00,CLR,CLR,0.00,WeatherDisplay:10.37,2013-03-28 15:19:00,
2013-03-28 11:24:00,43.1,26.7,29.02,NNW,333,9.2,9.2,52,0.00,CLR,CLR,0.00,WeatherDisplay:10.37,2013-03-28 15:24:00,
2013-03-28 11:29:00,43.7,27.2,29.05,NW,323,14.0,14.0,52,0.00,CLR,CLR,0.00,WeatherDisplay:10.37,2013-03-28 15:29:00,
2013-03-28 11:34:00,43.9,27.4,29.06,West,270,12.7,12.7,52,0.00,CLR,CLR,0.00,WeatherDisplay:10.37,2013-03-28 15:34:00,
2013-03-28 11:39:00,44.0,27.0,29.02,WSW,240,9.2,9.2,51,0.00,CLR,CLR,0.00,WeatherDisplay:10.37,2013-03-28 15:39:00,
2013-03-28 11:45:00,44.7,28.1,29.03,NNW,333,9.2,9.2,52,0.00,CLR,CLR,0.00,WeatherDisplay:10.37,2013-03-28 15:45:00,
2013-03-28 11:50:00,44.9,27.4,29.01,WNW,297,11.5,11.5,50,0.00,CLR,CLR,0.00,WeatherDisplay:10.37,2013-03-28 15:50:00,
2013-03-28 11:55:00,45.4,28.3,28.97,WNW,295,5.8,5.8,51,0.00,CLR,CLR,0.00,WeatherDisplay:10.37,2013-03-28 15:55:00,
2013-03-28 12:00:00,45.8,28.7,29.01,NW,312,8.0,8.8,51,0.00,CLR,CLR,0.00,WeatherDisplay:10.37,2013-03-28 16:00:00,
2013-03-28 12:05:00,45.8,28.2,29.03,West,264,9.2,9.2,50,0.00,CLR,CLR,0.00,WeatherDisplay:10.37,2013-03-28 16:05:00,
2013-03-28 12:10:00,46.0,27.9,29.02,NW,323,8.1,8.1,49,0.00,CLR,CLR,0.00,WeatherDisplay:10.37,2013-03-28 16:10:00,
2013-03-28 12:15:00,45.7,27.6,29.00,SW,218,15.0,15.0,49,0.00,CLR,CLR,0.00,WeatherDisplay:10.37,2013-03-28 16:15:00,
2013-03-28 12:21:00,45.9,27.8,29.06,NNW,330,8.1,8.1,49,0.00,CLR,CLR,0.00,WeatherDisplay:10.37,2013-03-28 16:21:00,
2013-03-28 12:26:00,46.1,27.5,29.03,West,269,16.1,16.1,48,0.00,CLR,CLR,0.00,WeatherDisplay:10.37,2013-03-28 16:26:00,
2013-03-28 12:31:00,45.4,26.8,29.00,NNW,339,18.0,18.0,48,0.00,CLR,CLR,0.00,WeatherDisplay:10.37,2013-03-28 16:31:00,
2013-03-28 12:36:00,45.3,27.2,29.01,WNW,301,15.0,15.0,49,0.00,CLR,CLR,0.00,WeatherDisplay:10.37,2013-03-28 16:36:00,
2013-03-28 12:41:00,45.4,27.3,29.01,North,349,13.8,13.8,49,0.00,CLR,CLR,0.00,WeatherDisplay:10.37,2013-03-28 16:41:00,
2013-03-28 12:46:00,45.4,27.3,29.00,NW,317,11.5,11.5,49,0.00,CLR,CLR,0.00,WeatherDisplay:10.37,2013-03-28 16:46:00,
2013-03-28 12:52:00,45.7,27.6,29.05,West,272,16.1,16.1,49,0.00,CLR,CLR,0.00,WeatherDisplay:10.37,2013-03-28 16:52:00,
2013-03-28 12:57:00,45.9,27.3,29.02,NNW,330,11.5,11.5,48,0.00,CLR,CLR,0.00,WeatherDisplay:10.37,2013-03-28 16:57:00,
2013-03-28 13:02:00,46.6,27.9,29.01,WSW,242,8.1,8.1,48,0.00,CLR,CLR,0.00,WeatherDisplay:10.37,2013-03-28 17:02:00,
2013-03-28 13:07:00,46.8,28.1,28.97,WSW,238,13.8,13.8,48,0.00,CLR,CLR,0.00,WeatherDisplay:10.37,2013-03-28 17:07:00,
2013-03-28 13:12:00,47.2,28.5,28.96,WNW,299,9.2,9.2,48,0.00,CLR,CLR,0.00,WeatherDisplay:10.37,2013-03-28 17:12:00,
2013-03-28 13:18:00,47.8,28.5,28.97,NW,311,11.5,11.5,47,0.00,CLR,CLR,0.00,WeatherDisplay:10.37,2013-03-28 17:18:00,
2013-03-28 13:23:00,47.8,28.0,29.02,NNE,19,13.8,13.8,46,0.00,CLR,CLR,0.00,WeatherDisplay:10.37,2013-03-28 17:23:00,
2013-03-28 13:28:00,47.7,27.9,29.02,NW,322,10.4,10.4,46,0.00,CLR,CLR,0.00,WeatherDisplay:10.37,2013-03-28 17:28:00,
2013-03-28 13:33:00,48.3,28.5,28.96,NW,316,9.0,9.0,46,0.00,CLR,CLR,0.00,WeatherDisplay:10.37,2013-03-28 17:33:00,
2013-03-28 13:38:00,48.7,29.4,29.03,North,351,9.0,9.0,47,0.00,CLR,CLR,0.00,WeatherDisplay:10.37,2013-03-28 17:38:00,
2013-03-28 13:44:00,48.7,29.4,28.96,WNW,289,10.4,10.4,47,0.00,CLR,CLR,0.00,WeatherDisplay:10.37,2013-03-28 17:44:00,
2013-03-28 13:49:00,49.0,29.1,29.02,West,267,6.9,6.9,46,0.00,CLR,CLR,0.00,WeatherDisplay:10.37,2013-03-28 17:49:00,
2013-03-28 13:54:00,49.0,29.1,29.00,West,276,9.2,9.2,46,0.00,CLR,CLR,0.00,WeatherDisplay:10.37,2013-03-28 17:54:00,
2013-03-28 13:59:00,48.6,28.7,29.02,SSW,200,10.4,10.4,46,0.00,CLR,CLR,0.00,WeatherDisplay:10.37,2013-03-28 17:59:00,
2013-03-28 14:04:00,49.0,28.6,29.00,North,351,12.0,12.0,45,0.00,CLR,CLR,0.00,WeatherDisplay:10.37,2013-03-28 18:04:00,
2013-03-28 14:09:00,48.7,28.3,29.00,NW,318,11.5,11.5,45,0.00,CLR,CLR,0.00,WeatherDisplay:10.37,2013-03-28 18:09:00,
2013-03-28 14:15:00,48.4,28.5,29.07,NW,322,3.5,3.5,46,0.00,CLR,CLR,0.00,WeatherDisplay:10.37,2013-03-28 18:15:00,
2013-03-28 14:20:00,48.9,29.0,29.12,NNW,333,10.4,10.4,46,0.00,CLR,CLR,0.00,WeatherDisplay:10.37,2013-03-28 18:20:00,
2013-03-28 14:25:00,48.8,28.9,28.98,North,3,9.2,9.2,46,0.00,CLR,CLR,0.00,WeatherDisplay:10.37,2013-03-28 18:25:00,
2013-03-28 14:30:00,48.6,28.2,28.96,North,350,9.2,9.2,45,0.00,CLR,CLR,0.00,WeatherDisplay:10.37,2013-03-28 18:30:00,
2013-03-28 14:36:00,48.3,28.5,28.96,NW,311,12.7,12.7,46,0.00,CLR,CLR,0.00,WeatherDisplay:10.37,2013-03-28 18:36:00,
2013-03-28 14:41:00,48.4,28.5,28.97,WSW,252,9.2,9.2,46,0.00,CLR,CLR,0.00,WeatherDisplay:10.37,2013-03-28 18:41:00,
2013-03-28 14:46:00,48.7,28.8,28.98,SSW,196,6.9,6.9,46,0.00,CLR,CLR,0.00,WeatherDisplay:10.37,2013-03-28 18:46:00,
2013-03-28 14:52:00,48.5,28.1,29.00,NNW,348,13.8,13.8,45,0.00,CLR,CLR,0.00,WeatherDisplay:10.37,2013-03-28 18:52:00,
2013-03-28 14:57:00,48.0,27.6,29.02,WNW,301,13.8,13.8,45,0.00,CLR,CLR,0.00,WeatherDisplay:10.37,2013-03-28 18:57:00,
2013-03-28 15:02:00,48.2,27.3,29.02,WNW,282,10.4,10.4,44,0.00,CLR,CLR,0.00,WeatherDisplay:10.37,2013-03-28 19:02:00,
2013-03-28 15:07:00,48.3,27.4,28.99,NW,309,15.0,15.0,44,0.00,CLR,CLR,0.00,WeatherDisplay:10.37,2013-03-28 19:07:00,
2013-03-28 15:12:00,48.4,27.5,28.99,NNW,346,13.8,13.8,44,0.00,CLR,CLR,0.00,WeatherDisplay:10.37,2013-03-28 19:12:00,
2013-03-28 15:17:00,47.5,26.6,28.98,North,355,12.7,12.7,44,0.00,CLR,CLR,0.00,WeatherDisplay:10.37,2013-03-28 19:17:00,
2013-03-28 15:22:00,47.1,27.4,28.95,North,0,9.0,9.0,46,0.00,CLR,CLR,0.00,WeatherDisplay:10.37,2013-03-28 19:22:00,
2013-03-28 15:27:00,47.2,27.5,28.98,North,10,9.2,9.2,46,0.00,CLR,CLR,0.00,WeatherDisplay:10.37,2013-03-28 19:27:00,
2013-03-28 15:33:00,47.6,27.8,28.98,NW,317,9.2,9.2,46,0.00,CLR,CLR,0.00,WeatherDisplay:10.37,2013-03-28 19:33:00,
2013-03-28 15:38:00,48.4,28.5,28.96,NW,306,10.4,10.4,46,0.00,CLR,CLR,0.00,WeatherDisplay:10.37,2013-03-28 19:38:00,
2013-03-28 15:43:00,48.8,28.4,29.04,WNW,282,10.4,10.4,45,0.00,CLR,CLR,0.00,WeatherDisplay:10.37,2013-03-28 19:43:00,
2013-03-28 15:48:00,49.0,28.0,28.96,NW,306,12.7,12.7,44,0.00,CLR,CLR,0.00,WeatherDisplay:10.37,2013-03-28 19:48:00,
2013-03-28 15:54:00,48.1,27.2,29.02,WNW,303,13.8,13.8,44,0.00,CLR,CLR,0.00,WeatherDisplay:10.37,2013-03-28 19:54:00,
2013-03-28 15:59:00,47.9,27.0,29.03,NNW,338,11.5,11.5,44,0.00,CLR,CLR,0.00,WeatherDisplay:10.37,2013-03-28 19:59:00,
2013-03-28 16:04:00,47.9,27.6,28.96,NW,310,16.1,16.1,45,0.00,CLR,CLR,0.00,WeatherDisplay:10.37,2013-03-28 20:04:00,
2013-03-28 16:09:00,47.9,27.6,29.01,NNW,336,13.8,13.8,45,0.00,CLR,CLR,0.00,WeatherDisplay:10.37,2013-03-28 20:09:00,
2013-03-28 16:14:00,48.1,27.2,28.98,North,2,18.0,18.0,44,0.00,CLR,CLR,0.00,WeatherDisplay:10.37,2013-03-28 20:14:00,
2013-03-28 16:19:00,48.0,27.1,28.97,North,4,20.7,20.7,44,0.00,CLR,CLR,0.00,WeatherDisplay:10.37,2013-03-28 20:19:00,
2013-03-28 16:24:00,48.2,27.3,28.98,North,356,16.1,16.1,44,0.00,CLR,CLR,0.00,WeatherDisplay:10.37,2013-03-28 20:24:00,
2013-03-28 16:30:00,48.4,27.5,29.01,NNW,335,17.3,17.3,44,0.00,CLR,CLR,0.00,WeatherDisplay:10.37,2013-03-28 20:30:00,
2013-03-28 16:35:00,48.2,27.3,29.00,NW,324,17.3,17.3,44,0.00,CLR,CLR,0.00,WeatherDisplay:10.37,2013-03-28 20:35:00,
2013-03-28 16:40:00,48.1,27.2,29.02,North,1,19.6,19.6,44,0.00,CLR,CLR,0.00,WeatherDisplay:10.37,2013-03-28 20:40:00,
2013-03-28 16:46:00,48.3,27.4,28.91,North,5,12.7,12.7,44,0.00,CLR,CLR,0.00,WeatherDisplay:10.37,2013-03-28 20:46:00,
2013-03-28 16:51:00,48.2,27.8,29.05,NNW,339,15.0,15.0,45,0.00,CLR,CLR,0.00,WeatherDisplay:10.37,2013-03-28 20:51:00,
2013-03-28 16:56:00,48.2,27.8,29.03,WNW,295,11.5,11.5,45,0.00,CLR,CLR,0.00,WeatherDisplay:10.37,2013-03-28 20:56:00,
2013-03-28 17:01:00,48.5,28.1,28.99,NW,320,9.2,9.2,45,0.00,CLR,CLR,0.00,WeatherDisplay:10.37,2013-03-28 21:01:00,
2013-03-28 17:07:00,48.6,27.1,29.07,West,262,12.7,12.7,43,0.00,CLR,CLR,0.00,WeatherDisplay:10.37,2013-03-28 21:07:00,
2013-03-28 17:12:00,48.3,27.4,29.09,WNW,291,10.4,10.4,44,0.00,CLR,CLR,0.00,WeatherDisplay:10.37,2013-03-28 21:12:00,
2013-03-28 17:17:00,48.2,27.8,28.94,NNW,343,13.8,13.8,45,0.00,CLR,CLR,0.00,WeatherDisplay:10.37,2013-03-28 21:17:00,
2013-03-28 17:22:00,47.9,27.6,28.87,NNW,341,16.1,16.1,45,0.00,CLR,CLR,0.00,WeatherDisplay:10.37,2013-03-28 21:22:00,
2013-03-28 17:27:00,47.8,26.9,29.02,NW,312,12.0,12.0,44,0.00,CLR,CLR,0.00,WeatherDisplay:10.37,2013-03-28 21:27:00,
2013-03-28 17:32:00,47.5,27.2,28.85,WNW,288,15.0,15.0,45,0.00,CLR,CLR,0.00,WeatherDisplay:10.37,2013-03-28 21:32:00,
2013-03-28 17:37:00,47.5,27.2,28.98,NW,322,17.3,17.3,45,0.00,CLR,CLR,0.00,WeatherDisplay:10.37,2013-03-28 21:37:00,
2013-03-28 17:42:00,47.3,26.5,28.92,NNW,342,21.9,21.9,44,0.00,CLR,CLR,0.00,WeatherDisplay:10.37,2013-03-28 21:42:00,
2013-03-28 17:48:00,47.0,26.2,29.17,NW,313,12.7,12.7,44,0.00,CLR,CLR,0.00,WeatherDisplay:10.37,2013-03-28 21:48:00,
2013-03-28 17:53:00,47.3,27.0,28.91,NNW,328,11.5,11.5,45,0.00,CLR,CLR,0.00,WeatherDisplay:10.37,2013-03-28 21:53:00,
2013-03-28 17:58:00,47.1,26.8,29.19,NW,322,12.7,12.7,45,0.00,CLR,CLR,0.00,WeatherDisplay:10.37,2013-03-28 21:58:00,
2013-03-28 18:03:00,47.0,26.7,28.60,NNW,337,13.8,13.8,45,0.00,CLR,CLR,0.00,WeatherDisplay:10.37,2013-03-28 22:03:00,
2013-03-28 18:08:00,46.8,27.1,28.61,NW,310,14.0,14.0,46,0.00,CLR,CLR,0.00,WeatherDisplay:10.37,2013-03-28 22:08:00,
2013-03-28 18:14:00,46.5,26.8,28.61,North,351,10.4,10.4,46,0.00,CLR,CLR,0.00,WeatherDisplay:10.37,2013-03-28 22:14:00,
2013-03-28 18:19:00,46.3,26.6,28.61,NW,313,9.2,9.2,46,0.00,CLR,CLR,0.00,WeatherDisplay:10.37,2013-03-28 22:19:00,
2013-03-28 18:24:00,46.2,26.5,28.61,NW,310,12.7,12.7,46,0.00,CLR,CLR,0.00,WeatherDisplay:10.37,2013-03-28 22:24:00,
2013-03-28 18:29:00,46.2,26.5,28.61,NW,321,19.6,19.6,46,0.00,CLR,CLR,0.00,WeatherDisplay:10.37,2013-03-28 22:29:00,
2013-03-28 18:34:00,45.9,26.3,28.62,North,351,19.6,19.6,46,0.00,CLR,CLR,0.00,WeatherDisplay:10.37,2013-03-28 22:34:00,
2013-03-28 18:39:00,45.7,26.6,28.61,NW,319,10.4,10.4,47,0.00,CLR,CLR,0.00,WeatherDisplay:10.37,2013-03-28 22:39:00,
2013-03-28 18:45:00,45.6,26.5,28.61,NNW,328,15.0,15.0,47,0.00,CLR,CLR,0.00,WeatherDisplay:10.37,2013-03-28 22:45:00,
2013-03-28 18:50:00,45.5,26.9,28.63,WNW,288,8.1,8.1,48,0.00,CLR,CLR,0.00,WeatherDisplay:10.37,2013-03-28 22:50:00,
2013-03-28 18:55:00,45.4,26.8,28.62,West,266,4.6,4.6,48,0.00,CLR,CLR,0.00,WeatherDisplay:10.37,2013-03-28 22:55:00,
2013-03-28 19:00:00,45.5,26.4,28.62,WNW,297,15.0,15.0,47,0.00,CLR,CLR,0.00,WeatherDisplay:10.37,2013-03-28 23:00:00,
2013-03-28 19:05:00,45.4,26.3,28.62,NW,322,10.4,10.4,47,0.00,CLR,CLR,0.00,WeatherDisplay:10.37,2013-03-28 23:05:00,
2013-03-28 19:10:00,45.3,26.7,28.62,WNW,299,7.0,7.0,48,0.00,CLR,CLR,0.00,WeatherDisplay:10.37,2013-03-28 23:10:00,
2013-03-28 19:15:00,45.2,26.7,28.62,WSW,247,6.9,6.9,48,0.00,CLR,CLR,0.00,WeatherDisplay:10.37,2013-03-28 23:15:00,
2013-03-28 19:20:00,44.9,26.4,28.63,WNW,284,11.5,11.5,48,0.00,CLR,CLR,0.00,WeatherDisplay:10.37,2013-03-28 23:20:00,
2013-03-28 19:25:00,44.7,26.2,28.63,NW,306,10.4,10.4,48,0.00,CLR,CLR,0.00,WeatherDisplay:10.37,2013-03-28 23:25:00,
2013-03-28 19:31:00,44.5,26.0,28.64,WSW,247,8.1,8.1,48,0.00,CLR,CLR,0.00,WeatherDisplay:10.37,2013-03-28 23:31:00,
2013-03-28 19:36:00,44.3,26.3,28.63,West,260,3.5,3.5,49,0.00,CLR,CLR,0.00,WeatherDisplay:10.37,2013-03-28 23:36:00,
2013-03-28 19:41:00,44.1,26.1,28.63,NW,320,9.2,9.2,49,0.00,CLR,CLR,0.00,WeatherDisplay:10.37,2013-03-28 23:41:00,
2013-03-28 19:46:00,44.0,26.0,28.64,NW,310,8.1,8.1,49,0.00,CLR,CLR,0.00,WeatherDisplay:10.37,2013-03-28 23:46:00,
2013-03-28 19:52:00,44.0,26.0,28.63,NNW,345,8.1,8.1,49,0.00,CLR,CLR,0.00,WeatherDisplay:10.37,2013-03-28 23:52:00,
2013-03-28 19:57:00,43.8,25.9,28.63,NW,319,8.1,8.1,49,0.00,CLR,CLR,0.00,WeatherDisplay:10.37,2013-03-28 23:57:00,
2013-03-28 20:02:00,43.7,25.8,28.63,WNW,302,3.5,3.5,49,0.00,CLR,CLR,0.00,WeatherDisplay:10.37,2013-03-29 00:02:00,
2013-03-28 20:07:00,43.5,26.1,28.64,NW,308,5.8,5.8,50,0.00,CLR,CLR,0.00,WeatherDisplay:10.37,2013-03-29 00:07:00,
2013-03-28 20:12:00,43.5,26.1,28.64,NW,319,5.8,5.8,50,0.00,CLR,CLR,0.00,WeatherDisplay:10.37,2013-03-29 00:12:00,
2013-03-28 20:17:00,43.4,26.0,28.64,West,277,5.0,5.0,50,0.00,CLR,CLR,0.00,WeatherDisplay:10.37,2013-03-29 00:17:00,
2013-03-28 20:22:00,43.2,25.8,28.64,WNW,283,4.6,4.6,50,0.00,CLR,CLR,0.00,WeatherDisplay:10.37,2013-03-29 00:22:00,
2013-03-28 20:28:00,43.0,25.6,28.65,West,279,3.5,3.5,50,0.00,CLR,CLR,0.00,WeatherDisplay:10.37,2013-03-29 00:28:00,
2013-03-28 20:33:00,42.8,25.9,28.65,WNW,301,2.3,2.3,51,0.00,CLR,CLR,0.00,WeatherDisplay:10.37,2013-03-29 00:33:00,
2013-03-28 20:38:00,42.5,26.1,28.65,WNW,301,2.3,2.3,52,0.00,CLR,CLR,0.00,WeatherDisplay:10.37,2013-03-29 00:38:00,
2013-03-28 20:43:00,42.3,25.9,28.65,WNW,301,3.5,3.5,52,0.00,CLR,CLR,0.00,WeatherDisplay:10.37,2013-03-29 00:43:00,
2013-03-28 20:48:00,42.0,25.6,28.65,WNW,301,1.2,0.0,52,0.00,CLR,CLR,0.00,WeatherDisplay:10.37,2013-03-29 00:48:00,
2013-03-28 20:53:00,41.9,26.0,28.66,WNW,301,2.3,2.3,53,0.00,CLR,CLR,0.00,WeatherDisplay:10.37,2013-03-29 00:53:00,
2013-03-28 20:58:00,41.6,25.7,28.66,WNW,301,2.3,2.3,53,0.00,CLR,CLR,0.00,WeatherDisplay:10.37,2013-03-29 00:58:00,
2013-03-28 21:04:00,41.4,26.0,28.65,WNW,301,2.3,2.3,54,0.00,CLR,CLR,0.00,WeatherDisplay:10.37,2013-03-29 01:04:00,
2013-03-28 21:09:00,41.2,25.8,28.65,WNW,301,1.2,1.2,54,0.00,CLR,CLR,0.00,WeatherDisplay:10.37,2013-03-29 01:09:00,
2013-03-28 21:14:00,41.0,25.6,28.66,WNW,301,0.0,0.0,54,0.00,CLR,CLR,0.00,WeatherDisplay:10.37,2013-03-29 01:14:00,
2013-03-28 21:19:00,40.8,25.4,28.66,WNW,301,3.5,3.5,54,0.00,CLR,CLR,0.00,WeatherDisplay:10.37,2013-03-29 01:19:00,
2013-03-28 21:24:00,40.6,25.7,28.66,WNW,301,2.3,2.3,55,0.00,CLR,CLR,0.00,WeatherDisplay:10.37,2013-03-29 01:24:00,
2013-03-28 21:29:00,40.3,25.4,28.66,WNW,301,0.0,0.0,55,0.00,CLR,CLR,0.00,WeatherDisplay:10.37,2013-03-29 01:29:00,
2013-03-28 21:35:00,40.1,25.6,28.67,WNW,301,0.0,0.0,56,0.00,CLR,CLR,0.00,WeatherDisplay:10.37,2013-03-29 01:35:00,
2013-03-28 21:40:00,39.9,25.9,28.66,WNW,301,3.5,3.5,57,0.00,CLR,CLR,0.00,WeatherDisplay:10.37,2013-03-29 01:40:00,
2013-03-28 21:45:00,39.5,25.5,28.67,WNW,301,3.0,3.0,57,0.00,CLR,CLR,0.00,WeatherDisplay:10.37,2013-03-29 01:45:00,
2013-03-28 21:50:00,39.3,25.7,28.67,WNW,301,3.5,3.5,58,0.00,CLR,CLR,0.00,WeatherDisplay:10.37,2013-03-29 01:50:00,
2013-03-28 21:55:00,39.0,25.5,28.67,WNW,301,3.0,3.0,58,0.00,CLR,CLR,0.00,WeatherDisplay:10.37,2013-03-29 01:55:00,
2013-03-28 22:00:00,38.7,25.6,28.67,WNW,301,3.5,3.5,59,0.00,CLR,CLR,0.00,WeatherDisplay:10.37,2013-03-29 02:00:00,
2013-03-28 22:05:00,38.4,25.7,28.67,WNW,291,3.5,3.5,60,0.00,CLR,CLR,0.00,WeatherDisplay:10.37,2013-03-29 02:05:00,
2013-03-28 22:11:00,38.2,25.5,28.67,WNW,291,3.5,3.5,60,0.00,CLR,CLR,0.00,WeatherDisplay:10.37,2013-03-29 02:11:00,
2013-03-28 22:16:00,38.1,25.4,28.67,West,280,3.5,3.5,60,0.00,CLR,CLR,0.00,WeatherDisplay:10.37,2013-03-29 02:16:00,
2013-03-28 22:22:00,38.1,25.4,28.67,West,278,3.5,3.5,60,0.00,CLR,CLR,0.00,WeatherDisplay:10.37,2013-03-29 02:22:00,
2013-03-28 22:27:00,37.9,25.2,28.67,West,264,3.5,3.5,60,0.00,CLR,CLR,0.00,WeatherDisplay:10.37,2013-03-29 02:27:00,
2013-03-28 22:32:00,37.7,25.5,28.68,West,264,3.5,3.5,61,0.00,CLR,CLR,0.00,WeatherDisplay:10.37,2013-03-29 02:32:00,
2013-03-28 22:38:00,37.5,25.3,28.68,WSW,239,4.6,4.6,61,0.00,CLR,CLR,0.00,WeatherDisplay:10.37,2013-03-29 02:38:00,
2013-03-28 22:43:00,37.3,25.5,28.67,WSW,239,2.3,2.3,62,0.00,CLR,CLR,0.00,WeatherDisplay:10.37,2013-03-29 02:43:00,
2013-03-28 22:48:00,37.0,25.2,28.67,WSW,258,5.0,5.0,62,0.00,CLR,CLR,0.00,WeatherDisplay:10.37,2013-03-29 02:48:00,
2013-03-28 22:53:00,36.8,25.4,28.68,WSW,250,5.0,5.0,63,0.00,CLR,CLR,0.00,WeatherDisplay:10.37,2013-03-29 02:53:00,
2013-03-28 22:58:00,36.7,25.3,28.68,West,270,4.6,4.6,63,0.00,CLR,CLR,0.00,WeatherDisplay:10.37,2013-03-29 02:58:00,
2013-03-28 23:03:00,36.6,25.2,28.67,SW,224,4.6,4.6,63,0.00,CLR,CLR,0.00,WeatherDisplay:10.37,2013-03-29 03:03:00,
2013-03-28 23:08:00,36.6,25.2,28.67,WSW,256,5.8,5.8,63,0.00,CLR,CLR,0.00,WeatherDisplay:10.37,2013-03-29 03:08:00,
2013-03-28 23:14:00,36.5,25.1,28.67,SW,217,4.0,4.0,63,0.00,CLR,CLR,0.00,WeatherDisplay:10.37,2013-03-29 03:14:00,
2013-03-28 23:19:00,36.5,24.7,28.68,SW,221,3.5,3.5,62,0.00,CLR,CLR,0.00,WeatherDisplay:10.37,2013-03-29 03:19:00,
2013-03-28 23:24:00,36.4,25.0,28.68,SW,220,3.5,3.5,63,0.00,CLR,CLR,0.00,WeatherDisplay:10.37,2013-03-29 03:24:00,
2013-03-28 23:29:00,36.2,24.8,28.68,SW,220,3.5,3.5,63,0.00,CLR,CLR,0.00,WeatherDisplay:10.37,2013-03-29 03:29:00,
2013-03-28 23:35:00,36.1,24.7,28.67,SW,220,3.5,3.5,63,0.00,CLR,CLR,0.00,WeatherDisplay:10.37,2013-03-29 03:35:00,
2013-03-28 23:40:00,36.0,24.6,28.68,SW,220,3.5,3.5,63,0.00,CLR,CLR,0.00,WeatherDisplay:10.37,2013-03-29 03:40:00,
2013-03-28 23:45:00,35.9,24.9,28.68,SW,220,3.5,3.5,64,0.00,CLR,CLR,0.00,WeatherDisplay:10.37,2013-03-29 03:45:00,
2013-03-28 23:50:00,35.8,24.8,28.67,SW,220,3.5,3.5,64,0.00,CLR,CLR,0.00,WeatherDisplay:10.37,2013-03-29 03:50:00,
2013-03-28 23:55:00,35.7,24.7,28.68,SW,220,4.0,4.0,64,0.00,CLR,CLR,0.00,WeatherDisplay:10.37,2013-03-29 03:55:00,